Time;durP1;ratioP1;P1;durP2;ratioP2;P2;SDS_P1;SDS_P2;PMS_P1;PMS_P2;Temp;Humidity;BMP_temperature;BMP_pressure;BME280_temperature;BME280_humidity;BME280_pressure;Samples;Min_cycle;Max_cycle;Signal;HPM_P1;HPM_P2
2022/04/30 00:01:26;;;;;;;8.57;5.03;;;;;;;;;;5047761;28;20446;-68
2022/04/30 00:03:53;;;;;;;7.20;4.68;;;;;;;;;;5066955;28;20549;-69
2022/04/30 00:06:19;;;;;;;7.57;4.78;;;;;;;;;;5067515;28;20171;-69
2022/04/30 00:08:46;;;;;;;7.43;5.63;;;;;;;;;;5045938;28;20048;-68
2022/04/30 00:11:13;;;;;;;7.72;5.40;;;;;;;;;;5049486;28;20086;-68
2022/04/30 00:13:39;;;;;;;8.82;5.35;;;;;;;;;;5047919;28;20501;-69
2022/04/30 00:16:05;;;;;;;8.85;4.85;;;;;;;;;;5051057;28;20083;-69
2022/04/30 00:18:31;;;;;;;8.20;4.97;;;;;;;;;;5064473;28;20084;-69
2022/04/30 00:20:58;;;;;;;8.35;4.60;;;;;;;;;;5048581;28;20049;-69
2022/04/30 00:23:26;;;;;;;8.98;5.88;;;;;;;;;;5066657;28;20058;-69
2022/04/30 00:25:54;;;;;;;8.40;5.07;;;;;;;;;;5072634;28;20054;-69
2022/04/30 00:28:22;;;;;;;8.82;4.70;;;;;;;;;;5069844;28;20044;-69
2022/04/30 00:30:49;;;;;;;7.85;5.20;;;;;;;;;;5078113;28;20036;-70
2022/04/30 00:33:15;;;;;;;8.88;5.00;;;;;;;;;;5062659;28;20039;-69
2022/04/30 00:35:43;;;;;;;8.85;5.03;;;;;;;;;;5057120;28;20060;-69
2022/04/30 00:38:09;;;;;;;13.52;4.93;;;;;;;;;;5045491;28;20041;-70
2022/04/30 00:40:35;;;;;;;11.13;5.05;;;;;;;;;;5051051;28;20537;-69
2022/04/30 00:43:01;;;;;;;9.65;5.88;;;;;;;;;;5071148;28;20539;-71
2022/04/30 00:45:28;;;;;;;7.28;5.38;;;;;;;;;;5059896;28;20045;-70
2022/04/30 00:47:55;;;;;;;9.38;5.90;;;;;;;;;;5074722;28;20040;-69
2022/04/30 00:50:21;;;;;;;11.50;5.50;;;;;;;;;;5068616;28;20052;-70
2022/04/30 00:52:48;;;;;;;9.82;6.22;;;;;;;;;;5067077;28;20040;-70
2022/04/30 00:55:14;;;;;;;8.32;5.72;;;;;;;;;;5053710;28;20036;-70
2022/04/30 00:57:42;;;;;;;8.52;6.18;;;;;;;;;;5075374;28;20041;-69
2022/04/30 01:00:09;;;;;;;11.70;5.45;;;;;;;;;;5049987;28;20036;-69
2022/04/30 01:02:35;;;;;;;7.30;5.35;;;;;;;;;;5067770;28;20538;-69
2022/04/30 01:05:02;;;;;;;8.07;6.13;;;;;;;;;;5072471;28;20044;-69
2022/04/30 01:07:30;;;;;;;8.18;5.38;;;;;;;;;;5051655;28;20741;-69
2022/04/30 01:09:56;;;;;;;7.63;5.30;;;;;;;;;;5039055;28;20105;-70
2022/04/30 01:12:23;;;;;;;7.10;5.32;;;;;;;;;;5055867;28;20048;-69
2022/04/30 01:14:51;;;;;;;9.15;5.97;;;;;;;;;;5073764;28;20051;-70
2022/04/30 01:17:18;;;;;;;7.82;5.22;;;;;;;;;;5052620;28;20055;-70
2022/04/30 01:19:45;;;;;;;14.95;7.22;;;;;;;;;;5050982;28;20507;-69
2022/04/30 01:22:11;;;;;;;8.77;5.55;;;;;;;;;;5040863;28;20063;-70
2022/04/30 01:24:38;;;;;;;8.68;5.45;;;;;;;;;;5054036;28;20094;-70
2022/04/30 01:27:07;;;;;;;8.48;5.72;;;;;;;;;;5049191;28;20044;-70
2022/04/30 01:29:36;;;;;;;7.43;5.85;;;;;;;;;;5056767;28;20036;-71
2022/04/30 01:37:38;;;;;;;8.82;5.57;;;;;;;;;;5052728;28;20053;-69
2022/04/30 01:40:05;;;;;;;7.23;5.40;;;;;;;;;;5070986;28;20043;-70
2022/04/30 01:42:35;;;;;;;11.48;5.38;;;;;;;;;;5073669;28;20270;-70
2022/04/30 01:45:04;;;;;;;9.43;5.57;;;;;;;;;;5068169;28;20430;-69
2022/04/30 01:47:31;;;;;;;9.27;5.38;;;;;;;;;;5052278;28;20044;-70
2022/04/30 01:49:57;;;;;;;7.85;5.63;;;;;;;;;;5054876;28;20087;-70
2022/04/30 01:52:23;;;;;;;10.93;6.43;;;;;;;;;;5063799;28;20469;-69
2022/04/30 01:54:49;;;;;;;7.63;5.57;;;;;;;;;;5068057;28;20425;-70
2022/04/30 01:57:23;;;;;;;8.48;6.28;;;;;;;;;;5069302;28;20495;-70
2022/04/30 01:59:51;;;;;;;7.55;5.30;;;;;;;;;;5054724;28;20040;-70
2022/04/30 02:02:17;;;;;;;8.32;5.63;;;;;;;;;;5053233;28;20479;-70
2022/04/30 02:04:43;;;;;;;10.05;5.88;;;;;;;;;;5065030;28;20048;-70
2022/04/30 02:07:10;;;;;;;7.65;5.35;;;;;;;;;;5050519;28;20484;-70
2022/04/30 02:09:37;;;;;;;9.65;5.60;;;;;;;;;;5054328;28;20064;-70
2022/04/30 02:12:04;;;;;;;8.10;5.32;;;;;;;;;;5050764;28;20115;-70
2022/04/30 02:14:31;;;;;;;11.10;6.70;;;;;;;;;;5048593;28;20035;-70
2022/04/30 02:17:03;;;;;;;9.07;6.15;;;;;;;;;;5044678;28;20051;-71
2022/04/30 02:20:18;;;;;;;8.75;6.20;;;;;;;;;;5071800;28;20045;-70
2022/04/30 02:22:17;;;;;;;7.93;6.07;;;;;;;;;;5054798;28;20217;-70
2022/04/30 02:24:43;;;;;;;8.52;6.07;;;;;;;;;;5050314;28;20123;-70
2022/04/30 02:27:09;;;;;;;11.88;6.30;;;;;;;;;;5053446;28;20042;-70
2022/04/30 02:29:38;;;;;;;9.75;6.53;;;;;;;;;;5066109;28;20048;-70
2022/04/30 02:32:04;;;;;;;9.05;5.70;;;;;;;;;;5069350;28;20047;-71
2022/04/30 02:34:31;;;;;;;9.07;5.70;;;;;;;;;;5049345;28;20451;-69
2022/04/30 02:36:57;;;;;;;10.48;6.97;;;;;;;;;;5057947;28;20048;-69
2022/04/30 02:39:23;;;;;;;8.93;6.00;;;;;;;;;;5050389;28;20054;-70
2022/04/30 02:41:49;;;;;;;7.82;5.68;;;;;;;;;;5070955;28;20048;-70
2022/04/30 02:44:17;;;;;;;10.43;5.32;;;;;;;;;;5053813;28;20098;-70
2022/04/30 02:46:43;;;;;;;11.07;6.07;;;;;;;;;;5068729;28;20036;-70
2022/04/30 02:49:09;;;;;;;10.85;6.35;;;;;;;;;;5071717;28;20044;-70
2022/04/30 02:51:35;;;;;;;7.57;5.95;;;;;;;;;;5051864;28;20370;-70
2022/04/30 02:54:01;;;;;;;11.68;5.75;;;;;;;;;;5049293;28;20543;-69
2022/04/30 02:56:28;;;;;;;10.55;6.28;;;;;;;;;;5036017;28;20033;-70
2022/04/30 03:01:39;;;;;;;15.40;6.22;;;;;;;;;;5067817;28;20094;-70
2022/04/30 03:04:05;;;;;;;9.40;6.45;;;;;;;;;;5051087;28;20161;-70
2022/04/30 03:06:32;;;;;;;8.45;6.20;;;;;;;;;;5049477;28;20602;-71
2022/04/30 03:08:58;;;;;;;9.02;5.53;;;;;;;;;;5069773;28;20127;-70
2022/04/30 03:11:25;;;;;;;7.43;5.13;;;;;;;;;;5067199;28;20033;-70
2022/04/30 03:13:51;;;;;;;7.07;5.05;;;;;;;;;;5038076;28;20044;-70
2022/04/30 03:21:47;;;;;;;7.40;4.90;;;;;;;;;;5050832;28;20136;-70
2022/04/30 03:24:18;;;;;;;7.38;4.70;;;;;;;;;;5052026;28;20460;-70
2022/04/30 03:26:48;;;;;;;7.57;4.72;;;;;;;;;;5070299;28;20032;-70
2022/04/30 03:29:15;;;;;;;12.38;5.35;;;;;;;;;;5042594;28;20062;-70
2022/04/30 03:31:41;;;;;;;7.72;5.15;;;;;;;;;;5051164;28;20040;-71
2022/04/30 03:34:12;;;;;;;7.45;4.93;;;;;;;;;;5067119;28;20044;-70
2022/04/30 03:36:38;;;;;;;10.32;5.53;;;;;;;;;;5048517;28;20110;-70
2022/04/30 03:39:05;;;;;;;9.30;5.82;;;;;;;;;;5056547;28;20473;-70
2022/04/30 03:41:31;;;;;;;10.85;5.03;;;;;;;;;;5048282;28;20036;-70
2022/04/30 03:43:57;;;;;;;9.70;5.10;;;;;;;;;;5071205;28;20593;-70
2022/04/30 03:46:23;;;;;;;7.43;4.63;;;;;;;;;;5073462;28;20047;-70
2022/04/30 03:48:53;;;;;;;7.13;5.43;;;;;;;;;;5072477;28;20031;-70
2022/04/30 03:51:21;;;;;;;5.57;4.47;;;;;;;;;;5051571;28;20082;-69
2022/04/30 03:53:47;;;;;;;7.53;5.45;;;;;;;;;;5074730;28;20400;-70
2022/04/30 03:56:13;;;;;;;8.43;5.60;;;;;;;;;;5066155;28;20041;-69
2022/04/30 03:58:40;;;;;;;7.45;5.30;;;;;;;;;;5042918;28;20048;-69
2022/04/30 04:01:06;;;;;;;10.15;5.40;;;;;;;;;;5046967;28;20039;-70
2022/04/30 04:03:32;;;;;;;8.07;4.97;;;;;;;;;;5078485;28;20386;-70
2022/04/30 04:05:59;;;;;;;6.93;4.57;;;;;;;;;;5049739;28;20048;-70
2022/04/30 04:08:25;;;;;;;8.98;5.50;;;;;;;;;;5067731;28;20139;-69
2022/04/30 04:10:51;;;;;;;6.97;5.55;;;;;;;;;;5068585;28;20040;-70
2022/04/30 04:18:51;;;;;;;7.38;5.28;;;;;;;;;;5073401;28;20064;-69
2022/04/30 04:21:18;;;;;;;7.30;5.20;;;;;;;;;;5037809;28;20048;-70
2022/04/30 04:26:30;;;;;;;9.55;6.32;;;;;;;;;;5051629;28;20090;-70
2022/04/30 04:28:56;;;;;;;7.47;5.55;;;;;;;;;;5048032;28;20524;-71
2022/04/30 04:31:22;;;;;;;10.10;6.78;;;;;;;;;;5072203;28;20131;-70
2022/04/30 04:33:49;;;;;;;8.10;5.88;;;;;;;;;;5047358;28;20612;-70
2022/04/30 04:36:16;;;;;;;11.73;6.00;;;;;;;;;;5070048;28;20068;-71
2022/04/30 04:38:42;;;;;;;11.80;6.15;;;;;;;;;;5052934;28;20044;-70
2022/04/30 04:41:09;;;;;;;7.57;6.10;;;;;;;;;;5049920;28;20039;-70
2022/04/30 04:43:35;;;;;;;10.13;5.68;;;;;;;;;;5055938;28;20058;-70
2022/04/30 04:46:06;;;;;;;7.85;5.88;;;;;;;;;;5052932;28;20323;-70
2022/04/30 04:48:33;;;;;;;7.57;4.82;;;;;;;;;;5033034;28;20055;-70
2022/04/30 04:50:59;;;;;;;9.65;6.50;;;;;;;;;;5066349;28;20771;-70
2022/04/30 04:53:25;;;;;;;9.30;6.68;;;;;;;;;;5055320;28;20046;-70
2022/04/30 04:55:52;;;;;;;6.97;5.72;;;;;;;;;;5072574;28;20123;-70
2022/04/30 04:58:18;;;;;;;9.63;5.63;;;;;;;;;;5053192;28;20640;-70
2022/04/30 05:00:44;;;;;;;7.65;6.20;;;;;;;;;;5053513;28;20504;-69
2022/04/30 05:03:12;;;;;;;12.00;7.03;;;;;;;;;;5036124;28;20098;-69
2022/04/30 05:05:38;;;;;;;7.03;5.20;;;;;;;;;;5065352;28;20052;-70
2022/04/30 05:08:05;;;;;;;9.35;7.00;;;;;;;;;;5057183;28;20043;-70
2022/04/30 05:10:31;;;;;;;9.45;6.35;;;;;;;;;;5053134;28;20044;-70
2022/04/30 05:12:57;;;;;;;13.45;6.22;;;;;;;;;;5051182;28;20569;-70
2022/04/30 05:15:23;;;;;;;11.35;7.10;;;;;;;;;;5071982;28;20059;-70
2022/04/30 05:17:49;;;;;;;9.88;6.57;;;;;;;;;;5050334;28;20561;-70
2022/04/30 05:20:16;;;;;;;8.32;6.72;;;;;;;;;;5050483;28;20055;-70
2022/04/30 05:22:42;;;;;;;22.17;7.28;;;;;;;;;;5066306;28;20036;-70
2022/04/30 05:25:08;;;;;;;12.45;6.82;;;;;;;;;;5066767;28;20044;-70
2022/04/30 05:27:34;;;;;;;10.45;7.20;;;;;;;;;;5052939;28;20044;-70
2022/04/30 05:30:00;;;;;;;11.20;7.10;;;;;;;;;;5048259;28;20040;-70
2022/04/30 05:32:27;;;;;;;12.43;7.28;;;;;;;;;;5072197;28;20050;-70
2022/04/30 05:34:53;;;;;;;10.35;7.18;;;;;;;;;;5067406;28;20440;-70
2022/04/30 05:37:19;;;;;;;9.77;6.57;;;;;;;;;;5054589;28;20127;-70
2022/04/30 05:39:45;;;;;;;12.27;7.53;;;;;;;;;;5049289;28;20125;-70
2022/04/30 05:42:11;;;;;;;9.45;7.07;;;;;;;;;;5070306;28;20124;-70
2022/04/30 05:44:38;;;;;;;12.68;7.18;;;;;;;;;;5050371;28;20111;-69
2022/04/30 05:47:04;;;;;;;13.77;7.63;;;;;;;;;;5066993;28;20052;-70
2022/04/30 05:49:30;;;;;;;13.23;7.65;;;;;;;;;;5051885;28;20044;-70
2022/04/30 05:51:56;;;;;;;11.05;6.60;;;;;;;;;;5066944;28;20103;-70
2022/04/30 05:54:22;;;;;;;11.68;8.00;;;;;;;;;;5054149;28;20158;-71
2022/04/30 05:56:48;;;;;;;11.27;7.22;;;;;;;;;;5069468;28;20079;-71
2022/04/30 05:59:15;;;;;;;13.77;7.72;;;;;;;;;;5055880;28;20155;-70
2022/04/30 06:01:41;;;;;;;10.13;7.03;;;;;;;;;;5067785;28;20098;-70
2022/04/30 06:04:07;;;;;;;12.45;7.68;;;;;;;;;;5046821;28;20048;-70
2022/04/30 06:06:33;;;;;;;9.48;6.53;;;;;;;;;;5066993;28;20417;-70
2022/04/30 06:08:59;;;;;;;11.48;6.85;;;;;;;;;;5066397;28;20131;-70
2022/04/30 06:11:26;;;;;;;11.45;7.95;;;;;;;;;;5050733;28;20792;-70
2022/04/30 06:13:52;;;;;;;10.07;7.10;;;;;;;;;;5055507;28;20047;-70
2022/04/30 06:16:18;;;;;;;12.10;7.40;;;;;;;;;;5050122;28;20040;-70
2022/04/30 06:18:44;;;;;;;11.85;7.05;;;;;;;;;;5051965;28;20054;-70
2022/04/30 06:21:10;;;;;;;12.88;7.45;;;;;;;;;;5071042;28;20615;-70
2022/04/30 06:23:36;;;;;;;10.93;7.28;;;;;;;;;;5064231;28;20043;-70
2022/04/30 06:26:02;;;;;;;10.85;7.75;;;;;;;;;;5047338;28;20063;-70
2022/04/30 06:28:29;;;;;;;11.65;8.00;;;;;;;;;;5052215;28;20389;-70
2022/04/30 06:30:55;;;;;;;8.57;6.43;;;;;;;;;;5047915;28;20048;-70
2022/04/30 06:33:21;;;;;;;14.00;7.90;;;;;;;;;;5066993;28;20036;-71
2022/04/30 06:35:47;;;;;;;12.75;7.95;;;;;;;;;;5047238;28;20306;-70
2022/04/30 06:38:16;;;;;;;13.13;7.50;;;;;;;;;;5049763;28;20076;-70
2022/04/30 06:40:42;;;;;;;11.07;7.07;;;;;;;;;;5071339;28;20040;-70
2022/04/30 06:43:08;;;;;;;14.57;7.70;;;;;;;;;;5040788;28;20562;-70
2022/04/30 06:45:35;;;;;;;15.27;8.55;;;;;;;;;;5046218;28;20060;-70
2022/04/30 06:48:01;;;;;;;16.55;9.02;;;;;;;;;;5049734;28;20043;-70
2022/04/30 06:50:27;;;;;;;13.57;8.65;;;;;;;;;;5060245;28;20056;-70
2022/04/30 06:58:24;;;;;;;19.33;7.63;;;;;;;;;;5065128;28;20135;-70
2022/04/30 07:03:27;;;;;;;11.73;7.87;;;;;;;;;;5051156;28;20079;-70
2022/04/30 07:06:03;;;;;;;11.88;8.27;;;;;;;;;;5047913;28;20074;-70
2022/04/30 07:08:32;;;;;;;13.57;8.60;;;;;;;;;;5046627;28;20505;-71
2022/04/30 07:10:59;;;;;;;14.93;8.68;;;;;;;;;;5068077;28;20058;-70
2022/04/30 07:13:25;;;;;;;12.18;7.85;;;;;;;;;;5047169;28;20395;-70
2022/04/30 07:15:51;;;;;;;11.07;6.85;;;;;;;;;;5068160;28;20063;-70
2022/04/30 07:18:18;;;;;;;14.93;8.88;;;;;;;;;;5051151;28;20048;-70
2022/04/30 07:20:44;;;;;;;11.23;8.40;;;;;;;;;;5043509;28;20142;-71
2022/04/30 07:23:10;;;;;;;13.25;9.02;;;;;;;;;;5063978;28;20044;-70
2022/04/30 07:25:36;;;;;;;15.57;8.35;;;;;;;;;;5053279;28;20054;-71
2022/04/30 07:28:03;;;;;;;10.77;7.00;;;;;;;;;;5040025;28;20032;-70
2022/04/30 07:30:29;;;;;;;10.77;7.97;;;;;;;;;;5063751;28;20306;-70
2022/04/30 07:32:55;;;;;;;14.75;8.55;;;;;;;;;;5049956;28;20044;-71
2022/04/30 07:35:21;;;;;;;13.23;9.00;;;;;;;;;;5046369;28;20155;-70
2022/04/30 07:37:47;;;;;;;12.00;7.93;;;;;;;;;;5070005;28;20083;-70
2022/04/30 07:40:13;;;;;;;23.20;9.50;;;;;;;;;;5044190;28;20085;-70
2022/04/30 07:42:40;;;;;;;14.98;9.55;;;;;;;;;;5047417;28;20101;-70
2022/04/30 07:45:06;;;;;;;12.70;8.68;;;;;;;;;;5065530;28;20055;-71
2022/04/30 07:47:32;;;;;;;14.07;9.38;;;;;;;;;;5049398;28;20064;-71
2022/04/30 07:49:59;;;;;;;13.15;8.55;;;;;;;;;;5050926;28;20127;-71
2022/04/30 07:52:25;;;;;;;14.88;9.57;;;;;;;;;;5063417;28;20171;-71
2022/04/30 07:54:52;;;;;;;11.85;9.60;;;;;;;;;;5063519;28;20431;-70
2022/04/30 07:57:20;;;;;;;16.00;8.82;;;;;;;;;;5049663;28;20048;-71
2022/04/30 07:59:46;;;;;;;13.25;8.25;;;;;;;;;;5046737;28;20032;-70
2022/04/30 08:02:12;;;;;;;12.73;9.13;;;;;;;;;;5062567;28;20040;-70
2022/04/30 08:04:39;;;;;;;16.27;8.73;;;;;;;;;;5057920;28;20126;-71
2022/04/30 08:07:09;;;;;;;13.70;9.27;;;;;;;;;;5062430;28;20045;-70
2022/04/30 08:09:35;;;;;;;17.08;9.20;;;;;;;;;;5071792;28;20091;-70
2022/04/30 08:12:01;;;;;;;15.80;9.85;;;;;;;;;;5053696;28;20065;-70
2022/04/30 08:14:27;;;;;;;12.20;8.95;;;;;;;;;;5053521;28;20551;-69
2022/04/30 08:16:54;;;;;;;16.15;9.48;;;;;;;;;;5051462;28;20505;-69
2022/04/30 08:19:21;;;;;;;15.02;9.35;;;;;;;;;;5050278;28;20051;-70
2022/04/30 08:21:48;;;;;;;13.23;9.98;;;;;;;;;;5062753;28;20063;-69
2022/04/30 08:24:15;;;;;;;16.83;9.90;;;;;;;;;;5046683;28;20043;-69
2022/04/30 08:26:43;;;;;;;14.18;8.98;;;;;;;;;;5047326;28;20039;-69
2022/04/30 08:29:09;;;;;;;11.48;8.55;;;;;;;;;;5054124;28;20492;-69
2022/04/30 08:31:35;;;;;;;12.25;8.80;;;;;;;;;;5063502;28;20040;-69
2022/04/30 08:34:01;;;;;;;13.10;9.02;;;;;;;;;;5044934;28;20055;-69
2022/04/30 08:36:27;;;;;;;12.10;9.23;;;;;;;;;;5046324;28;20033;-70
2022/04/30 08:38:54;;;;;;;17.35;9.52;;;;;;;;;;5063126;28;20044;-69
2022/04/30 08:41:21;;;;;;;14.13;8.95;;;;;;;;;;5047649;28;20132;-69
2022/04/30 08:43:48;;;;;;;12.60;8.65;;;;;;;;;;5064254;28;20049;-69
2022/04/30 08:46:15;;;;;;;14.98;9.20;;;;;;;;;;5070056;28;20040;-69
2022/04/30 08:48:44;;;;;;;14.00;9.30;;;;;;;;;;5048367;28;20048;-69
2022/04/30 08:51:11;;;;;;;13.82;9.45;;;;;;;;;;5065995;28;20102;-69
2022/04/30 08:53:37;;;;;;;11.45;8.82;;;;;;;;;;5049440;28;20041;-70
2022/04/30 08:56:07;;;;;;;10.68;7.28;;;;;;;;;;5049757;28;20040;-69
2022/04/30 08:58:33;;;;;;;11.43;7.68;;;;;;;;;;5048691;28;20060;-69
2022/04/30 09:01:01;;;;;;;14.13;9.15;;;;;;;;;;5072357;28;20040;-69
2022/04/30 09:03:27;;;;;;;13.43;9.13;;;;;;;;;;5052818;28;20505;-69
2022/04/30 09:05:53;;;;;;;12.07;8.50;;;;;;;;;;5051943;28;20749;-70
2022/04/30 09:08:20;;;;;;;15.55;10.82;;;;;;;;;;5048545;28;20066;-70
2022/04/30 09:10:48;;;;;;;17.23;10.20;;;;;;;;;;5041335;28;20044;-69
2022/04/30 09:13:15;;;;;;;19.92;10.93;;;;;;;;;;5054529;28;20507;-70
2022/04/30 09:15:46;;;;;;;16.15;9.55;;;;;;;;;;5049577;28;20035;-70
2022/04/30 09:18:13;;;;;;;13.55;9.38;;;;;;;;;;5070759;28;20392;-70
2022/04/30 09:20:49;;;;;;;13.52;8.93;;;;;;;;;;5047550;28;20107;-70
2022/04/30 09:23:30;;;;;;;11.32;8.23;;;;;;;;;;5048607;28;20648;-70
2022/04/30 09:25:57;;;;;;;9.98;7.53;;;;;;;;;;5048672;28;20070;-70
2022/04/30 09:28:27;;;;;;;12.43;7.20;;;;;;;;;;5066274;28;20086;-69
2022/04/30 09:31:07;;;;;;;12.52;6.88;;;;;;;;;;5048444;28;20039;-70
2022/04/30 09:33:33;;;;;;;12.63;6.50;;;;;;;;;;5067528;28;20044;-70
2022/04/30 09:39:13;;;;;;;9.48;5.78;;;;;;;;;;5065713;28;20047;-70
2022/04/30 09:41:39;;;;;;;8.43;5.13;;;;;;;;;;5049049;28;20067;-69
2022/04/30 09:44:06;;;;;;;13.32;7.03;;;;;;;;;;5048433;28;20131;-70
2022/04/30 09:46:36;;;;;;;7.07;5.85;;;;;;;;;;5039589;28;20048;-70
2022/04/30 09:54:37;;;;;;;13.23;6.78;;;;;;;;;;5058723;28;20601;-70
2022/04/30 09:57:04;;;;;;;8.88;7.45;;;;;;;;;;5069433;28;20063;-70
2022/04/30 09:59:31;;;;;;;14.40;7.35;;;;;;;;;;5046033;28;20112;-70
2022/04/30 10:01:58;;;;;;;10.65;6.70;;;;;;;;;;5052464;28;20056;-70
2022/04/30 10:04:25;;;;;;;11.00;7.45;;;;;;;;;;5051945;28;20048;-70
2022/04/30 10:06:53;;;;;;;11.98;8.18;;;;;;;;;;5053387;28;20413;-70
2022/04/30 10:09:23;;;;;;;11.30;7.28;;;;;;;;;;5069535;28;20382;-70
2022/04/30 10:12:01;;;;;;;10.45;8.05;;;;;;;;;;5052145;28;20516;-70
2022/04/30 10:14:33;;;;;;;9.43;6.93;;;;;;;;;;5066774;28;20093;-71
2022/04/30 10:17:16;;;;;;;8.00;6.00;;;;;;;;;;5065081;28;20393;-70
2022/04/30 10:20:01;;;;;;;8.40;5.97;;;;;;;;;;5068252;28;20386;-70
2022/04/30 10:22:27;;;;;;;10.43;6.47;;;;;;;;;;5064351;28;20036;-70
2022/04/30 10:24:56;;;;;;;8.18;5.75;;;;;;;;;;5064554;28;20040;-70
2022/04/30 10:27:22;;;;;;;8.32;5.28;;;;;;;;;;5053141;28;20647;-70
2022/04/30 10:30:01;;;;;;;6.75;4.95;;;;;;;;;;5065491;28;20110;-70
2022/04/30 10:32:30;;;;;;;9.05;5.38;;;;;;;;;;5067119;28;20122;-70
2022/04/30 10:34:56;;;;;;;9.15;3.97;;;;;;;;;;5045855;28;20090;-70
2022/04/30 10:37:30;;;;;;;6.78;5.07;;;;;;;;;;5055955;28;20051;-70
2022/04/30 10:39:59;;;;;;;7.63;5.25;;;;;;;;;;5066107;28;20048;-72
2022/04/30 10:42:29;;;;;;;10.10;4.43;;;;;;;;;;5049630;28;20032;-70
2022/04/30 10:44:56;;;;;;;7.35;5.28;;;;;;;;;;5070598;28;20032;-70
2022/04/30 10:47:22;;;;;;;8.02;4.55;;;;;;;;;;5051996;28;20032;-70
2022/04/30 10:49:49;;;;;;;7.65;5.30;;;;;;;;;;5063553;28;20036;-70
2022/04/30 10:52:25;;;;;;;8.93;5.50;;;;;;;;;;5070729;28;20071;-71
2022/04/30 10:54:54;;;;;;;7.38;4.95;;;;;;;;;;5033258;28;20109;-70
2022/04/30 10:57:20;;;;;;;7.22;5.15;;;;;;;;;;5050565;28;20470;-70
2022/04/30 10:59:56;;;;;;;7.40;4.97;;;;;;;;;;5074259;28;20040;-70
2022/04/30 11:02:22;;;;;;;8.43;4.30;;;;;;;;;;5066132;28;20044;-70
2022/04/30 11:04:48;;;;;;;7.63;4.15;;;;;;;;;;5045203;28;20044;-70
2022/04/30 11:07:16;;;;;;;9.48;4.13;;;;;;;;;;5049401;28;20048;-71
2022/04/30 11:09:43;;;;;;;7.13;4.25;;;;;;;;;;5068106;28;20142;-70
2022/04/30 11:12:13;;;;;;;6.78;3.88;;;;;;;;;;5049811;28;20115;-70
2022/04/30 11:14:40;;;;;;;6.60;4.20;;;;;;;;;;5046405;28;20433;-70
2022/04/30 11:17:06;;;;;;;9.35;4.93;;;;;;;;;;5068701;28;20119;-70
2022/04/30 11:19:32;;;;;;;5.80;4.03;;;;;;;;;;5048981;28;20039;-71
2022/04/30 11:21:59;;;;;;;5.05;3.88;;;;;;;;;;5046969;28;20047;-70
2022/04/30 11:24:32;;;;;;;6.20;4.55;;;;;;;;;;5054067;28;20037;-70
2022/04/30 11:27:05;;;;;;;7.18;4.63;;;;;;;;;;5054017;28;20040;-70
2022/04/30 11:29:32;;;;;;;5.50;3.88;;;;;;;;;;5071618;28;20044;-71
2022/04/30 11:31:59;;;;;;;6.80;3.97;;;;;;;;;;5070071;28;20032;-71
2022/04/30 11:34:26;;;;;;;6.78;4.47;;;;;;;;;;5047141;28;20045;-70
2022/04/30 11:36:59;;;;;;;10.15;6.30;;;;;;;;;;5050198;28;20425;-70
2022/04/30 11:39:25;;;;;;;9.73;7.32;;;;;;;;;;5064654;28;20109;-71
2022/04/30 11:41:52;;;;;;;11.43;6.63;;;;;;;;;;5047416;28;20106;-70
2022/04/30 11:44:19;;;;;;;12.90;8.10;;;;;;;;;;5038102;28;20093;-71
2022/04/30 11:46:47;;;;;;;12.35;7.60;;;;;;;;;;5046708;28;20173;-70
2022/04/30 11:49:14;;;;;;;12.07;6.68;;;;;;;;;;5067550;28;20044;-70
2022/04/30 11:51:41;;;;;;;8.77;6.72;;;;;;;;;;5046561;28;20044;-70
2022/04/30 11:54:08;;;;;;;9.65;6.25;;;;;;;;;;5066563;28;20296;-70
2022/04/30 11:56:35;;;;;;;12.52;7.07;;;;;;;;;;5067685;28;20036;-70
2022/04/30 11:59:01;;;;;;;10.23;6.90;;;;;;;;;;5053738;28;20313;-70
2022/04/30 12:01:30;;;;;;;9.88;6.10;;;;;;;;;;5041939;28;20048;-70
2022/04/30 12:04:00;;;;;;;8.32;6.10;;;;;;;;;;5052813;28;20070;-71
2022/04/30 12:06:27;;;;;;;8.10;6.05;;;;;;;;;;5049545;28;20098;-70
2022/04/30 12:08:54;;;;;;;11.05;6.60;;;;;;;;;;5061268;28;20124;-70
2022/04/30 12:11:20;;;;;;;8.93;6.18;;;;;;;;;;5052718;28;20504;-70
2022/04/30 12:13:57;;;;;;;8.85;6.47;;;;;;;;;;5049918;28;20484;-70
2022/04/30 12:16:23;;;;;;;8.95;5.72;;;;;;;;;;5047309;28;20041;-70
2022/04/30 12:24:43;;;;;;;10.10;6.40;;;;;;;;;;5057618;28;20108;-70
2022/04/30 12:27:10;;;;;;;8.52;5.85;;;;;;;;;;5040230;28;20125;-70
2022/04/30 12:29:37;;;;;;;9.50;5.95;;;;;;;;;;5068451;28;20036;-70
2022/04/30 12:32:04;;;;;;;9.13;5.90;;;;;;;;;;5050661;28;20109;-71
2022/04/30 12:34:36;;;;;;;7.13;6.28;;;;;;;;;;5049737;28;20047;-71
2022/04/30 12:37:03;;;;;;;9.00;6.60;;;;;;;;;;5071306;28;20051;-70
2022/04/30 12:39:29;;;;;;;10.10;6.20;;;;;;;;;;5053023;28;20102;-71
2022/04/30 12:41:59;;;;;;;11.52;6.68;;;;;;;;;;5070946;28;20357;-70
2022/04/30 12:44:26;;;;;;;13.95;6.10;;;;;;;;;;5069696;28;20291;-70
2022/04/30 12:46:52;;;;;;;10.45;7.18;;;;;;;;;;5068856;28;20062;-70
2022/04/30 12:49:19;;;;;;;8.55;6.45;;;;;;;;;;5066116;28;20048;-70
2022/04/30 12:51:46;;;;;;;13.35;7.45;;;;;;;;;;5053172;28;20371;-70
2022/04/30 12:54:13;;;;;;;7.75;5.82;;;;;;;;;;5067099;28;20499;-70
2022/04/30 12:56:40;;;;;;;11.07;7.32;;;;;;;;;;5050540;28;20422;-70
2022/04/30 12:59:07;;;;;;;11.35;7.18;;;;;;;;;;5059343;28;20311;-70
2022/04/30 13:01:34;;;;;;;12.35;6.90;;;;;;;;;;5034305;28;20368;-70
2022/04/30 13:04:01;;;;;;;9.60;7.00;;;;;;;;;;5049324;28;20044;-70
2022/04/30 13:06:29;;;;;;;11.73;6.68;;;;;;;;;;5054054;28;20044;-70
2022/04/30 13:14:25;;;;;;;11.13;6.60;;;;;;;;;;5045946;28;20131;-70
2022/04/30 13:16:51;;;;;;;7.82;6.63;;;;;;;;;;5058308;28;20486;-70
2022/04/30 13:19:18;;;;;;;9.23;6.13;;;;;;;;;;5066428;28;20091;-70
2022/04/30 13:21:47;;;;;;;8.20;6.05;;;;;;;;;;5053521;28;20080;-71
2022/04/30 13:24:14;;;;;;;10.15;6.40;;;;;;;;;;5072983;28;20040;-70
2022/04/30 13:26:41;;;;;;;13.68;6.50;;;;;;;;;;5069598;28;20044;-70
2022/04/30 13:29:10;;;;;;;8.32;5.90;;;;;;;;;;5056660;28;20127;-70
2022/04/30 13:31:37;;;;;;;8.80;6.18;;;;;;;;;;5066456;28;20126;-70
2022/04/30 13:34:04;;;;;;;9.63;6.35;;;;;;;;;;5053494;28;20207;-70
2022/04/30 13:36:34;;;;;;;13.05;6.88;;;;;;;;;;5068363;28;20474;-70
2022/04/30 13:39:01;;;;;;;7.45;6.18;;;;;;;;;;5048341;28;20056;-70
2022/04/30 13:41:27;;;;;;;14.73;7.22;;;;;;;;;;5053418;28;20470;-70
2022/04/30 13:43:54;;;;;;;9.55;7.55;;;;;;;;;;5060622;28;20043;-70
2022/04/30 13:46:20;;;;;;;11.13;6.72;;;;;;;;;;5054195;28;20072;-70
2022/04/30 13:48:46;;;;;;;12.73;7.85;;;;;;;;;;5034811;28;20052;-70
2022/04/30 13:51:13;;;;;;;9.85;7.13;;;;;;;;;;5068549;28;20063;-70
2022/04/30 13:53:39;;;;;;;9.45;6.60;;;;;;;;;;5074141;28;20406;-70
2022/04/30 13:56:06;;;;;;;9.95;6.72;;;;;;;;;;5051430;28;20386;-70
2022/04/30 13:58:33;;;;;;;12.82;6.65;;;;;;;;;;5067868;28;20421;-70
2022/04/30 14:00:59;;;;;;;10.52;7.00;;;;;;;;;;5049501;28;20409;-70
2022/04/30 14:03:26;;;;;;;10.00;7.28;;;;;;;;;;5047551;28;20040;-70
2022/04/30 14:05:53;;;;;;;10.73;6.97;;;;;;;;;;5072553;28;20053;-71
2022/04/30 14:08:20;;;;;;;10.63;7.43;;;;;;;;;;5066530;28;20074;-71
2022/04/30 14:10:46;;;;;;;10.48;6.55;;;;;;;;;;5068943;28;20122;-70
2022/04/30 14:15:57;;;;;;;6.80;5.18;;;;;;;;;;5036932;28;20048;-70
2022/04/30 14:18:24;;;;;;;10.00;5.20;;;;;;;;;;5068620;28;20439;-70
2022/04/30 14:20:51;;;;;;;9.38;5.93;;;;;;;;;;5069290;28;20127;-70
2022/04/30 14:23:18;;;;;;;7.70;5.45;;;;;;;;;;5072294;28;20098;-70
2022/04/30 14:25:44;;;;;;;10.52;5.88;;;;;;;;;;5058208;28;20048;-70
2022/04/30 14:28:11;;;;;;;8.82;5.18;;;;;;;;;;5068224;28;20076;-70
2022/04/30 14:30:41;;;;;;;7.82;5.32;;;;;;;;;;5072921;28;20040;-70
2022/04/30 14:33:08;;;;;;;7.10;4.88;;;;;;;;;;5049796;28;20043;-71
2022/04/30 14:35:35;;;;;;;8.70;5.10;;;;;;;;;;5047922;28;20097;-70
2022/04/30 14:38:03;;;;;;;7.00;5.13;;;;;;;;;;5051070;28;20120;-70
2022/04/30 14:40:30;;;;;;;6.97;4.47;;;;;;;;;;5042778;28;20044;-70
2022/04/30 14:42:56;;;;;;;7.60;4.72;;;;;;;;;;5066598;28;20059;-70
2022/04/30 14:45:23;;;;;;;7.97;4.47;;;;;;;;;;5067350;28;20036;-70
2022/04/30 14:47:49;;;;;;;8.25;5.38;;;;;;;;;;5050343;28;20581;-70
2022/04/30 14:50:15;;;;;;;10.88;6.07;;;;;;;;;;5050699;28;20048;-70
2022/04/30 14:52:42;;;;;;;8.05;5.80;;;;;;;;;;5048447;28;20045;-70
2022/04/30 14:55:08;;;;;;;8.63;6.22;;;;;;;;;;5067174;28;20040;-70
2022/04/30 14:57:35;;;;;;;12.38;7.45;;;;;;;;;;5053102;28;20048;-70
2022/04/30 15:00:01;;;;;;;17.70;7.15;;;;;;;;;;5048593;28;20127;-70
2022/04/30 15:02:27;;;;;;;8.93;6.80;;;;;;;;;;5048411;28;20102;-70
2022/04/30 15:04:53;;;;;;;9.30;6.55;;;;;;;;;;5063072;28;20047;-70
2022/04/30 15:07:20;;;;;;;9.52;7.22;;;;;;;;;;5043069;28;20072;-70
2022/04/30 15:09:46;;;;;;;10.43;6.75;;;;;;;;;;5047978;28;20053;-70
2022/04/30 15:12:12;;;;;;;10.50;6.55;;;;;;;;;;5048235;28;20040;-70
2022/04/30 15:14:40;;;;;;;10.93;6.70;;;;;;;;;;5042640;28;20440;-70
2022/04/30 15:17:09;;;;;;;10.18;6.00;;;;;;;;;;5044698;28;20037;-70
2022/04/30 15:19:35;;;;;;;10.70;5.68;;;;;;;;;;5050940;28;20087;-70
2022/04/30 15:22:01;;;;;;;7.90;6.43;;;;;;;;;;5051568;28;20503;-70
2022/04/30 15:24:27;;;;;;;11.20;6.18;;;;;;;;;;5050259;28;20044;-70
2022/04/30 15:26:53;;;;;;;13.43;6.75;;;;;;;;;;5039843;28;20456;-70
2022/04/30 15:29:27;;;;;;;12.75;6.70;;;;;;;;;;5042105;28;20041;-70